createdAt,value
2018-05-27T00:02:11.169Z,63.56
2018-05-27T00:04:40.076Z,64.88
2018-05-27T00:07:08.857Z,65.66
2018-05-27T00:09:37.633Z,65.26
2018-05-27T00:12:06.443Z,64.84
2018-05-27T00:14:35.231Z,64.29
2018-05-27T00:17:04.253Z,64.23
2018-05-27T00:19:33.067Z,64.25
2018-05-27T00:22:01.812Z,64.09
2018-05-27T00:24:30.558Z,63.66
2018-05-27T00:26:59.406Z,64.04
2018-05-27T00:29:28.184Z,64.57
2018-05-27T00:31:56.962Z,64.39
2018-05-27T00:34:25.783Z,64.47
2018-05-27T00:36:55.330Z,64.88
2018-05-27T00:39:24.118Z,65.37
2018-05-27T00:41:52.944Z,65.36
2018-05-27T00:44:21.760Z,65.18
2018-05-27T00:46:50.553Z,65.38
2018-05-27T00:49:23.166Z,65.20
2018-05-27T00:51:55.262Z,64.86
2018-05-27T00:54:32.148Z,64.74
2018-05-27T00:57:02.963Z,64.68
2018-05-27T00:59:35.503Z,64.45
2018-05-27T01:02:05.810Z,64.17
2018-05-27T01:04:41.369Z,64.82
2018-05-27T01:07:17.228Z,65.74
2018-05-27T01:09:51.578Z,65.38
2018-05-27T01:12:26.632Z,66.31
2018-05-27T01:15:01.428Z,67.09
2018-05-27T01:17:38.460Z,67.01
2018-05-27T01:20:13.396Z,66.76
2018-05-27T01:22:48.034Z,66.09
2018-05-27T01:25:22.015Z,66.81
2018-05-27T01:27:58.067Z,67.66
2018-05-27T01:30:34.113Z,67.62
2018-05-27T01:33:12.081Z,67.15
2018-05-27T01:35:52.720Z,66.39
2018-05-27T01:38:28.911Z,65.89
2018-05-27T01:41:03.678Z,65.59
2018-05-27T01:43:34.374Z,65.56
2018-05-27T01:46:06.183Z,65.69
2018-05-27T01:48:36.519Z,66.73
2018-05-27T01:51:14.509Z,66.48
2018-05-27T01:53:45.186Z,66.05
2018-05-27T01:56:18.752Z,66.31
2018-05-27T01:58:50.784Z,66.23
2018-05-27T02:01:25.021Z,65.78
2018-05-27T02:04:03.106Z,65.45
2018-05-27T02:06:37.065Z,65.08
2018-05-27T02:09:12.291Z,64.87
2018-05-27T02:11:47.791Z,65.08
2018-05-27T02:14:24.829Z,64.75
2018-05-27T02:19:38.819Z,64.69
2018-05-27T02:22:14.700Z,64.79
2018-05-27T02:24:47.481Z,64.73
2018-05-27T02:27:24.562Z,64.96
2018-05-27T02:29:59.327Z,65.40
2018-05-27T02:32:32.094Z,65.10
2018-05-27T02:35:10.695Z,64.70
2018-05-27T02:37:45.071Z,64.63
2018-05-27T02:40:21.405Z,64.94
2018-05-27T02:42:55.443Z,64.82
2018-05-27T02:45:28.490Z,64.45
2018-05-27T02:48:02.045Z,65.00
2018-05-27T02:50:35.603Z,65.28
2018-05-27T02:53:08.638Z,65.31
2018-05-27T02:55:43.041Z,65.77
2018-05-27T02:58:17.147Z,65.55
2018-05-27T03:00:48.168Z,65.58
2018-05-27T03:03:24.408Z,65.77
2018-05-27T03:05:57.719Z,65.41
2018-05-27T03:08:37.016Z,65.41
2018-05-27T03:11:14.031Z,65.25
2018-05-27T03:16:23.387Z,66.10
2018-05-27T03:18:57.238Z,66.28
2018-05-27T03:21:26.809Z,65.94
2018-05-27T03:23:55.631Z,65.46
2018-05-27T03:26:24.389Z,65.43
2018-05-27T03:28:53.164Z,65.25
2018-05-27T03:31:21.953Z,65.64
2018-05-27T03:33:50.707Z,65.56
2018-05-27T03:36:19.464Z,64.97
2018-05-27T03:38:48.229Z,64.75
2018-05-27T03:41:17.019Z,65.11
2018-05-27T03:43:45.761Z,65.29
2018-05-27T03:46:15.426Z,65.49
2018-05-27T03:48:45.279Z,64.95
2018-05-27T03:51:14.076Z,64.77
2018-05-27T03:53:42.892Z,64.25
2018-05-27T03:56:11.677Z,64.18
2018-05-27T03:58:40.451Z,63.64
2018-05-27T04:01:10.000Z,64.05
2018-05-27T04:03:38.718Z,65.29
2018-05-27T04:06:19.273Z,65.67
2018-05-27T04:08:48.959Z,65.16
2018-05-27T04:11:19.353Z,64.81
2018-05-27T04:13:48.154Z,63.71
2018-05-27T04:16:16.905Z,63.48
2018-05-27T04:18:45.925Z,62.93
2018-05-27T04:21:14.712Z,62.51
2018-05-27T04:23:43.457Z,62.58
2018-05-27T04:26:12.264Z,63.68
2018-05-27T04:28:41.097Z,64.10
2018-05-27T04:31:09.849Z,64.11
2018-05-27T04:33:38.613Z,63.86
2018-05-27T04:36:07.545Z,62.96
2018-05-27T04:38:37.051Z,62.25
2018-05-27T04:41:05.927Z,61.93
2018-05-27T04:43:34.659Z,61.36
2018-05-27T04:46:04.194Z,61.53
2018-05-27T04:48:32.949Z,61.85
2018-05-27T04:51:01.716Z,61.71
2018-05-27T04:53:30.470Z,61.48
2018-05-27T04:55:59.332Z,60.58
2018-05-27T04:58:28.145Z,60.64
2018-05-27T05:00:56.926Z,61.08
2018-05-27T05:03:25.674Z,60.05
2018-05-27T05:05:54.526Z,59.38
2018-05-27T05:08:23.358Z,58.99
2018-05-27T05:10:52.125Z,59.03
2018-05-27T05:13:20.934Z,58.47
2018-05-27T05:15:49.686Z,56.99
2018-05-27T05:18:18.577Z,57.57
2018-05-27T05:20:47.388Z,56.79
2018-05-27T05:23:17.003Z,54.64
2018-05-27T05:25:45.744Z,54.19
2018-05-27T05:28:14.509Z,54.72
2018-05-27T05:30:43.300Z,54.60
2018-05-27T05:33:12.071Z,55.26
2018-05-27T05:35:41.622Z,54.55
2018-05-27T05:38:10.384Z,52.34
2018-05-27T05:40:39.204Z,52.26
2018-05-27T05:43:07.978Z,54.13
2018-05-27T05:45:36.793Z,52.46
2018-05-27T05:48:05.563Z,52.97
2018-05-27T05:50:34.396Z,51.55
2018-05-27T05:53:03.154Z,51.62
2018-05-27T05:55:31.950Z,53.18
2018-05-27T05:58:00.686Z,50.55
2018-05-27T06:00:29.458Z,50.94
2018-05-27T06:02:58.254Z,51.59
2018-05-27T06:05:27.037Z,49.17
2018-05-27T06:07:55.768Z,49.14
2018-05-27T06:10:24.545Z,49.71
2018-05-27T06:12:53.323Z,51.29
2018-05-27T06:15:22.101Z,50.35
2018-05-27T06:17:51.624Z,50.68
2018-05-27T06:20:20.378Z,50.93
2018-05-27T06:22:49.893Z,50.12
2018-05-27T06:25:18.734Z,50.38
2018-05-27T06:27:48.581Z,50.95
2018-05-27T06:30:17.403Z,50.66
2018-05-27T06:32:46.204Z,50.52
2018-05-27T06:35:14.962Z,49.24
2018-05-27T06:37:43.732Z,50.21
2018-05-27T06:40:12.505Z,47.85
2018-05-27T06:42:41.274Z,48.51
2018-05-27T06:45:10.034Z,48.11
2018-05-27T06:47:38.780Z,49.75
2018-05-27T06:50:07.520Z,47.76
2018-05-27T06:52:36.310Z,47.10
2018-05-27T06:55:05.071Z,47.58
2018-05-27T06:57:33.792Z,47.12
2018-05-27T07:00:02.535Z,45.17
2018-05-27T07:02:31.423Z,44.99
2018-05-27T07:05:00.398Z,46.96
2018-05-27T07:07:29.145Z,45.74
2018-05-27T07:09:58.680Z,46.68
2018-05-27T07:12:27.439Z,44.96
2018-05-27T07:14:56.203Z,45.31
2018-05-27T07:17:25.713Z,46.96
2018-05-27T07:19:54.532Z,46.36
2018-05-27T07:22:23.307Z,45.17
2018-05-27T07:24:52.267Z,45.81
2018-05-27T07:27:21.169Z,46.19
2018-05-27T07:29:50.025Z,48.30
2018-05-27T07:32:19.476Z,49.39
2018-05-27T07:34:48.170Z,47.57
2018-05-27T07:37:16.910Z,47.37
2018-05-27T07:39:46.908Z,49.27
2018-05-27T07:42:15.652Z,48.71
2018-05-27T07:44:44.397Z,47.63
2018-05-27T07:47:13.139Z,46.27
2018-05-27T07:49:42.375Z,46.04
2018-05-27T07:52:11.153Z,46.61
2018-05-27T07:54:39.970Z,47.88
2018-05-27T07:57:08.765Z,46.20
2018-05-27T07:59:37.488Z,44.75
2018-05-27T08:02:06.639Z,44.59
2018-05-27T08:04:35.465Z,43.46
2018-05-27T08:07:04.262Z,45.97
2018-05-27T08:09:32.951Z,44.41
2018-05-27T08:12:01.696Z,46.32
2018-05-27T08:14:30.487Z,44.36
2018-05-27T08:16:59.238Z,43.68
2018-05-27T08:19:28.772Z,44.63
2018-05-27T08:21:57.510Z,46.20
2018-05-27T08:24:26.369Z,47.31
2018-05-27T08:26:55.136Z,43.48
2018-05-27T08:29:23.985Z,44.29
2018-05-27T08:31:52.731Z,41.73
2018-05-27T08:34:21.504Z,42.95
2018-05-27T08:36:51.340Z,44.33
2018-05-27T08:39:21.162Z,44.00
2018-05-27T08:41:49.911Z,42.66
2018-05-27T08:44:18.681Z,45.53
2018-05-27T08:46:47.516Z,42.65
2018-05-27T08:49:17.053Z,43.77
2018-05-27T08:51:46.635Z,42.30
2018-05-27T08:54:15.674Z,40.91
2018-05-27T08:56:45.165Z,40.33
2018-05-27T08:59:13.982Z,40.64
2018-05-27T09:01:42.937Z,41.08
2018-05-27T09:04:11.740Z,40.84
2018-05-27T09:06:40.476Z,41.20
2018-05-27T09:09:09.317Z,41.08
2018-05-27T09:11:38.204Z,40.35
2018-05-27T09:14:06.981Z,40.44
2018-05-27T09:16:35.829Z,41.49
2018-05-27T09:19:04.663Z,42.75
2018-05-27T09:21:34.170Z,40.77
2018-05-27T09:24:02.927Z,40.54
2018-05-27T09:26:31.738Z,39.91
2018-05-27T09:29:00.476Z,40.77
2018-05-27T09:31:29.292Z,41.13
2018-05-27T09:33:58.030Z,39.08
2018-05-27T09:36:27.596Z,36.69
2018-05-27T09:38:56.427Z,38.44
2018-05-27T09:41:25.176Z,37.84
2018-05-27T09:43:53.912Z,37.20
2018-05-27T09:46:23.489Z,36.89
2018-05-27T09:48:52.611Z,37.88
2018-05-27T09:51:21.356Z,41.47
2018-05-27T09:53:50.276Z,41.78
2018-05-27T09:56:19.868Z,42.43
2018-05-27T09:58:48.659Z,42.72
2018-05-27T10:01:17.481Z,41.52
2018-05-27T10:03:46.308Z,40.46
2018-05-27T10:06:15.045Z,40.33
2018-05-27T10:08:43.851Z,39.47
2018-05-27T10:11:12.631Z,39.27
2018-05-27T10:13:41.418Z,41.74
2018-05-27T10:16:10.212Z,39.60
2018-05-27T10:18:39.064Z,37.43
2018-05-27T10:21:07.861Z,38.47
2018-05-27T10:23:36.722Z,38.10
2018-05-27T10:26:05.601Z,39.71
2018-05-27T10:28:34.956Z,38.33
2018-05-27T10:31:04.800Z,39.87
2018-05-27T10:33:34.318Z,42.81
2018-05-27T10:36:03.106Z,40.64
2018-05-27T10:38:32.627Z,40.86
2018-05-27T10:41:01.433Z,39.92
2018-05-27T10:43:30.194Z,40.62
2018-05-27T10:45:59.031Z,38.76
2018-05-27T10:48:28.011Z,37.26
2018-05-27T10:50:57.901Z,38.55
2018-05-27T10:53:27.453Z,38.32
2018-05-27T10:55:56.230Z,39.29
2018-05-27T10:58:24.982Z,37.56
2018-05-27T11:00:55.052Z,40.62
2018-05-27T11:03:24.350Z,39.13
2018-05-27T11:05:55.925Z,39.50
2018-05-27T11:08:24.640Z,41.00
2018-05-27T11:10:55.310Z,38.50
2018-05-27T11:13:24.522Z,39.98
2018-05-27T11:15:53.778Z,39.65
2018-05-27T11:18:22.557Z,38.64
2018-05-27T11:20:52.270Z,38.75
2018-05-27T11:23:21.909Z,36.86
2018-05-27T11:25:50.715Z,38.68
2018-05-27T11:28:19.657Z,36.47
2018-05-27T11:30:48.425Z,35.48
2018-05-27T11:33:17.277Z,36.76
2018-05-27T11:35:46.025Z,36.54
2018-05-27T11:38:14.919Z,37.78
2018-05-27T11:40:44.588Z,38.94
2018-05-27T11:43:13.347Z,40.68
2018-05-27T11:45:42.100Z,40.18
2018-05-27T11:48:10.903Z,40.17
2018-05-27T11:50:39.652Z,39.66
2018-05-27T11:53:08.493Z,42.71
2018-05-27T11:55:37.324Z,41.78
2018-05-27T11:58:06.073Z,39.36
2018-05-27T12:00:34.838Z,39.70
2018-05-27T12:03:03.606Z,40.05
2018-05-27T12:05:32.398Z,40.68
2018-05-27T12:08:01.166Z,38.43
2018-05-27T12:10:30.012Z,38.70
2018-05-27T12:12:58.813Z,39.18
2018-05-27T12:15:28.253Z,39.93
2018-05-27T12:17:58.072Z,40.56
2018-05-27T12:20:27.731Z,39.51
2018-05-27T12:22:57.048Z,39.67
2018-05-27T12:25:26.157Z,37.96
2018-05-27T12:27:54.944Z,39.10
2018-05-27T12:30:23.764Z,41.39
2018-05-27T12:32:52.671Z,39.10
2018-05-27T12:35:22.251Z,39.31
2018-05-27T12:37:51.074Z,41.30
2018-05-27T12:40:19.871Z,41.31
2018-05-27T12:42:48.675Z,39.87
2018-05-27T12:45:17.513Z,39.03
2018-05-27T12:47:46.327Z,39.92
2018-05-27T12:50:15.051Z,40.07
2018-05-27T12:52:43.824Z,40.67
2018-05-27T12:55:12.686Z,40.39
2018-05-27T12:57:42.215Z,40.02
2018-05-27T13:00:11.001Z,40.26
2018-05-27T13:02:39.805Z,39.74
2018-05-27T13:05:08.581Z,38.67
2018-05-27T13:07:38.057Z,40.01
2018-05-27T13:10:08.286Z,41.40
2018-05-27T13:12:37.677Z,39.49
2018-05-27T13:15:06.411Z,39.88
2018-05-27T13:17:35.934Z,41.18
2018-05-27T13:20:04.770Z,41.54
2018-05-27T13:22:33.485Z,40.58
2018-05-27T13:25:02.373Z,40.81
2018-05-27T13:27:31.151Z,41.15
2018-05-27T13:30:00.243Z,41.86
2018-05-27T13:32:29.040Z,41.62
2018-05-27T13:34:57.892Z,40.76
2018-05-27T13:37:27.850Z,42.02
2018-05-27T13:39:58.198Z,41.01
2018-05-27T13:42:27.923Z,41.82
2018-05-27T13:44:56.729Z,41.94
2018-05-27T13:47:25.890Z,42.59
2018-05-27T13:49:54.656Z,42.66
2018-05-27T13:52:23.389Z,42.27
2018-05-27T13:54:52.197Z,42.77
2018-05-27T13:57:20.971Z,42.36
2018-05-27T13:59:49.755Z,43.44
2018-05-27T14:02:18.597Z,41.42
2018-05-27T14:04:47.385Z,41.13
2018-05-27T14:07:16.114Z,42.87
2018-05-27T14:09:44.909Z,43.60
2018-05-27T14:12:13.678Z,43.89
2018-05-27T14:14:42.492Z,44.08
2018-05-27T14:17:11.334Z,44.75
2018-05-27T14:19:40.204Z,46.18
2018-05-27T14:22:09.058Z,46.40
2018-05-27T14:24:38.581Z,46.62
2018-05-27T14:27:07.332Z,47.36
2018-05-27T14:29:36.863Z,47.36
2018-05-27T14:32:05.617Z,47.84
2018-05-27T14:34:34.437Z,47.33
2018-05-27T14:37:03.183Z,48.98
2018-05-27T14:39:33.300Z,47.09
2018-05-27T14:42:02.397Z,47.55
2018-05-27T14:44:31.130Z,47.98
2018-05-27T14:46:59.928Z,47.97
2018-05-27T14:49:29.983Z,48.21
2018-05-27T14:51:59.885Z,47.97
2018-05-27T14:54:30.940Z,48.89
2018-05-27T14:56:59.689Z,49.31
2018-05-27T14:59:30.391Z,49.22
2018-05-27T15:02:01.574Z,49.22
2018-05-27T15:04:33.599Z,49.52
2018-05-27T15:07:04.378Z,50.19
2018-05-27T15:09:33.121Z,51.30
2018-05-27T15:12:03.159Z,51.72
2018-05-27T15:14:31.930Z,51.59
2018-05-27T15:17:01.870Z,52.29
2018-05-27T15:19:31.372Z,52.75
2018-05-27T15:22:00.353Z,54.35
2018-05-27T15:24:31.003Z,55.11
2018-05-27T15:27:00.177Z,54.97
2018-05-27T15:29:30.771Z,54.79
2018-05-27T15:32:00.959Z,55.26
2018-05-27T15:34:32.466Z,54.73
2018-05-27T15:37:01.247Z,54.42
2018-05-27T15:39:31.242Z,54.77
2018-05-27T15:42:01.214Z,55.85
2018-05-27T15:44:31.046Z,56.81
2018-05-27T15:47:00.561Z,57.06
2018-05-27T15:49:29.339Z,56.38
2018-05-27T15:51:58.409Z,56.67
2018-05-27T15:54:27.963Z,56.37
2018-05-27T15:56:56.806Z,56.31
2018-05-27T15:59:27.528Z,57.20
2018-05-27T16:01:56.323Z,58.61
2018-05-27T16:04:25.052Z,58.55
2018-05-27T16:06:55.312Z,58.53
2018-05-27T16:09:24.080Z,58.50
2018-05-27T16:11:52.863Z,58.71
2018-05-27T16:14:21.637Z,59.33
2018-05-27T16:16:50.438Z,59.23
2018-05-27T16:19:19.306Z,58.39
2018-05-27T16:21:48.901Z,59.70
2018-05-27T16:24:18.102Z,59.84
2018-05-27T16:26:47.698Z,60.24
2018-05-27T16:29:16.841Z,60.88
2018-05-27T16:31:46.228Z,60.40
2018-05-27T16:34:14.991Z,60.77
2018-05-27T16:36:45.351Z,62.21
2018-05-27T16:39:14.251Z,62.90
2018-05-27T16:41:43.056Z,64.08
2018-05-27T16:44:12.083Z,64.26
2018-05-27T16:46:40.949Z,63.35
2018-05-27T16:49:10.559Z,62.06
2018-05-27T16:51:39.610Z,61.47
2018-05-27T16:54:08.698Z,61.14
2018-05-27T16:56:37.911Z,61.73
2018-05-27T16:59:08.096Z,62.45
2018-05-27T17:01:36.860Z,62.39
2018-05-27T17:04:05.755Z,62.12
2018-05-27T17:06:35.663Z,62.22
2018-05-27T17:09:04.425Z,63.29
2018-05-27T17:11:33.702Z,63.54
2018-05-27T17:14:02.632Z,63.52
2018-05-27T17:16:33.125Z,63.49
2018-05-27T17:19:03.012Z,62.46
2018-05-27T17:21:33.039Z,61.72
2018-05-27T17:24:03.634Z,60.97
2018-05-27T17:26:32.668Z,61.06
2018-05-27T17:29:01.483Z,61.25
2018-05-27T17:31:30.287Z,61.31
2018-05-27T17:33:59.133Z,61.32
2018-05-27T17:36:30.364Z,61.14
2018-05-27T17:38:59.249Z,61.33
2018-05-27T17:41:28.019Z,59.85
2018-05-27T17:43:57.781Z,60.15
2018-05-27T17:46:26.701Z,60.25
2018-05-27T17:48:55.490Z,60.74
2018-05-27T17:51:25.229Z,60.41
2018-05-27T17:53:54.260Z,60.89
2018-05-27T17:56:23.172Z,61.80
2018-05-27T17:58:53.729Z,62.16
2018-05-27T18:01:22.609Z,63.50
2018-05-27T18:03:52.152Z,63.90
2018-05-27T18:06:20.952Z,63.62
2018-05-27T18:08:49.872Z,63.36
2018-05-27T18:11:20.203Z,62.73
2018-05-27T18:13:49.964Z,63.49
2018-05-27T18:16:19.944Z,63.92
2018-05-27T18:18:48.990Z,64.01
2018-05-27T18:21:18.004Z,63.37
2018-05-27T18:23:46.850Z,61.99
2018-05-27T18:26:16.006Z,61.39
2018-05-27T18:28:44.902Z,61.30
2018-05-27T18:31:14.652Z,61.47
2018-05-27T18:33:43.455Z,62.16
2018-05-27T18:36:12.268Z,62.67
2018-05-27T18:38:41.650Z,62.49
2018-05-27T18:41:10.377Z,63.11
2018-05-27T18:43:39.894Z,63.05
2018-05-27T18:46:09.629Z,63.05
2018-05-27T18:48:38.354Z,63.23
2018-05-27T18:51:07.215Z,63.01
2018-05-27T18:53:36.109Z,62.70
2018-05-27T18:56:05.665Z,62.65
2018-05-27T18:58:35.643Z,63.40
2018-05-27T19:01:06.561Z,63.83
2018-05-27T19:03:35.473Z,65.48
2018-05-27T19:06:04.308Z,64.73
2018-05-27T19:08:33.116Z,64.47
2018-05-27T19:11:02.819Z,64.16
2018-05-27T19:13:31.576Z,63.75
2018-05-27T19:16:00.336Z,63.66
2018-05-27T19:18:29.180Z,63.83
2018-05-27T19:20:57.935Z,63.43
2018-05-27T19:23:28.376Z,62.70
2018-05-27T19:25:58.887Z,62.60
2018-05-27T19:28:27.875Z,62.63
2018-05-27T19:30:56.707Z,62.32
2018-05-27T19:33:26.847Z,62.12
2018-05-27T19:35:55.577Z,61.72
2018-05-27T19:41:22.338Z,60.12
2018-05-27T19:43:51.771Z,60.46
2018-05-27T19:46:20.540Z,60.73
2018-05-27T19:48:49.289Z,61.40
2018-05-27T19:51:18.050Z,62.25
2018-05-27T19:53:47.292Z,62.26
2018-05-27T19:56:16.080Z,61.77
2018-05-27T19:58:44.857Z,61.33
2018-05-27T20:01:13.685Z,61.08
2018-05-27T20:03:42.624Z,61.03
2018-05-27T20:06:12.159Z,61.35
2018-05-27T20:08:40.946Z,61.16
2018-05-27T20:11:09.726Z,61.84
2018-05-27T20:13:38.506Z,61.55
2018-05-27T20:16:07.313Z,61.44
2018-05-27T20:18:37.169Z,60.83
2018-05-27T20:21:08.485Z,59.87
2018-05-27T20:23:37.294Z,61.05
2018-05-27T20:26:07.148Z,60.95
2018-05-27T20:28:35.958Z,60.91
2018-05-27T20:31:04.836Z,60.96
2018-05-27T20:33:36.848Z,60.63
2018-05-27T20:36:05.738Z,61.18
2018-05-27T20:38:35.016Z,60.89
2018-05-27T20:41:04.027Z,60.36
2018-05-27T20:43:32.823Z,60.61
2018-05-27T20:46:01.828Z,60.60
2018-05-27T20:48:30.592Z,60.44
2018-05-27T20:50:59.348Z,60.01
2018-05-27T20:53:29.909Z,60.60
2018-05-27T20:55:59.517Z,61.47
2018-05-27T20:58:28.801Z,62.35
2018-05-27T21:00:57.622Z,62.96
2018-05-27T21:03:26.385Z,62.58
2018-05-27T21:05:55.148Z,63.10
2018-05-27T21:08:23.934Z,61.94
2018-05-27T21:10:53.457Z,61.21
2018-05-27T21:13:22.353Z,60.20
2018-05-27T21:15:51.871Z,60.29
2018-05-27T21:18:20.592Z,60.95
2018-05-27T21:20:49.383Z,60.92
2018-05-27T21:23:18.162Z,60.29
2018-05-27T21:25:46.886Z,60.70
2018-05-27T21:28:18.189Z,60.60
2018-05-27T21:30:49.976Z,60.15
2018-05-27T21:33:22.245Z,60.04
2018-05-27T21:35:57.808Z,60.68
2018-05-27T21:38:29.194Z,60.89
2018-05-27T21:41:01.086Z,60.81
2018-05-27T21:43:32.479Z,60.49
2018-05-27T21:46:03.346Z,60.79
2018-05-27T21:48:42.005Z,60.79
2018-05-27T21:51:18.991Z,60.70
2018-05-27T21:53:50.961Z,60.17
2018-05-27T21:56:25.130Z,61.28
2018-05-27T21:58:59.983Z,60.92
2018-05-27T22:01:39.131Z,61.73
2018-05-27T22:04:15.163Z,61.62
2018-05-27T22:06:49.892Z,61.82
2018-05-27T22:09:24.903Z,61.45
2018-05-27T22:11:57.805Z,60.58
2018-05-27T22:14:30.669Z,60.46
2018-05-27T22:17:03.280Z,59.52
2018-05-27T22:19:36.970Z,59.57
2018-05-27T22:22:09.986Z,59.96
2018-05-27T22:24:43.727Z,60.20
2018-05-27T22:27:18.151Z,59.99
2018-05-27T22:29:53.152Z,60.28
2018-05-27T22:32:26.394Z,59.75
2018-05-27T22:34:58.080Z,59.90
2018-05-27T22:37:32.938Z,60.48
2018-05-27T22:40:10.521Z,60.67
2018-05-27T22:42:45.603Z,60.35
2018-05-27T22:48:03.865Z,60.12
2018-05-27T22:50:34.170Z,60.25
2018-05-27T22:53:12.464Z,60.28
2018-05-27T22:55:46.786Z,60.16
2018-05-27T22:58:23.130Z,58.94
2018-05-27T23:00:55.177Z,57.48
2018-05-27T23:03:27.229Z,58.01
2018-05-27T23:06:01.597Z,58.07
2018-05-27T23:08:35.233Z,57.80
2018-05-27T23:11:10.912Z,58.76
2018-05-27T23:13:43.005Z,59.09
2018-05-27T23:16:18.565Z,58.85
2018-05-27T23:18:50.939Z,59.38
2018-05-27T23:21:25.066Z,59.82
2018-05-27T23:24:00.857Z,60.01
2018-05-27T23:26:33.603Z,59.97
2018-05-27T23:29:05.651Z,60.27
2018-05-27T23:31:45.732Z,59.99
2018-05-27T23:34:21.195Z,60.01
2018-05-27T23:36:55.047Z,59.86
2018-05-27T23:39:27.547Z,59.87
2018-05-27T23:42:04.593Z,60.23
2018-05-27T23:44:38.472Z,60.55
2018-05-27T23:47:16.399Z,61.43
2018-05-27T23:49:54.969Z,61.27
2018-05-27T23:52:31.207Z,61.42
2018-05-27T23:55:07.453Z,61.35
2018-05-27T23:57:41.261Z,61.48
